Milwaukee, Wisconsin
Traffic Map
Current Weather Conditions
Milwaukee, Wisconsin
Few Clouds
Few Clouds
50°
Feels Like: 50°
Wind Chill: 50° Ceiling: Unl
Heat Index: 50° Visibility: 10mi
Dew Point: 22° Wind: 14mph
Humidity: 33% Direction: 300° (WNW)
Pressure: 30.33in Gusts: 24mph
Raw Report DataKMKE 172152Z 30012G21KT 10SM FEW050 10/M06 A3033 RMK AO2 SLP274 T01001056
Traffic Incident Summary
Active as of:
Severity:
Category:
InformationThere was an issue retrieving the traffic information for this location. Please try a different location or try again shortly.
Advertisements